sensor_id;sensor_type;location;lat;lon;timestamp;pressure;altitude;pressure_sealevel;temperature;humidity
4415;BME280;2220;42.670;23.398;2024-01-07T00:01:12;91565.41;;;7.41;100.00
4415;BME280;2220;42.670;23.398;2024-01-07T00:03:40;91473.19;;;7.49;100.00
4415;BME280;2220;42.670;23.398;2024-01-07T00:06:05;91411.84;;;7.62;100.00
4415;BME280;2220;42.670;23.398;2024-01-07T00:08:31;91358.44;;;7.57;100.00
4415;BME280;2220;42.670;23.398;2024-01-07T00:10:56;91385.47;;;7.06;100.00
4415;BME280;2220;42.670;23.398;2024-01-07T00:13:22;91384.22;;;6.91;100.00
4415;BME280;2220;42.670;23.398;2024-01-07T00:15:47;91410.84;;;6.91;100.00
4415;BME280;2220;42.670;23.398;2024-01-07T00:18:13;91403.50;;;6.93;100.00
4415;BME280;2220;42.670;23.398;2024-01-07T00:20:38;91336.91;;;6.82;100.00
4415;BME280;2220;42.670;23.398;2024-01-07T00:23:03;91206.63;;;7.07;100.00
4415;BME280;2220;42.670;23.398;2024-01-07T00:25:29;90992.69;;;7.23;100.00
4415;BME280;2220;42.670;23.398;2024-01-07T00:27:54;90846.97;;;7.35;100.00
4415;BME280;2220;42.670;23.398;2024-01-07T00:30:21;90668.19;;;7.44;100.00
4415;BME280;2220;42.670;23.398;2024-01-07T00:32:46;90554.41;;;7.67;100.00
4415;BME280;2220;42.670;23.398;2024-01-07T00:35:12;90531.34;;;7.62;100.00
4415;BME280;2220;42.670;23.398;2024-01-07T00:37:37;90801.56;;;6.57;100.00
4415;BME280;2220;42.670;23.398;2024-01-07T00:40:04;90823.34;;;6.44;100.00
4415;BME280;2220;42.670;23.398;2024-01-07T00:42:29;90807.75;;;6.28;100.00
4415;BME280;2220;42.670;23.398;2024-01-07T00:44:55;90797.63;;;6.23;100.00
4415;BME280;2220;42.670;23.398;2024-01-07T00:47:20;90819.44;;;5.89;100.00
4415;BME280;2220;42.670;23.398;2024-01-07T00:49:46;90789.09;;;5.74;100.00
4415;BME280;2220;42.670;23.398;2024-01-07T00:52:11;90691.28;;;5.60;100.00
4415;BME280;2220;42.670;23.398;2024-01-07T00:54:36;90593.19;;;5.60;100.00
4415;BME280;2220;42.670;23.398;2024-01-07T00:57:02;90447.72;;;5.52;100.00
4415;BME280;2220;42.670;23.398;2024-01-07T00:59:28;90233.22;;;5.54;100.00
4415;BME280;2220;42.670;23.398;2024-01-07T01:01:55;90100.03;;;5.49;100.00
4415;BME280;2220;42.670;23.398;2024-01-07T01:04:20;89947.19;;;5.56;100.00
4415;BME280;2220;42.670;23.398;2024-01-07T01:06:46;89862.28;;;5.51;100.00
4415;BME280;2220;42.670;23.398;2024-01-07T01:09:12;89759.16;;;5.54;100.00
4415;BME280;2220;42.670;23.398;2024-01-07T01:11:37;89675.53;;;5.59;100.00
4415;BME280;2220;42.670;23.398;2024-01-07T01:14:03;89578.00;;;5.72;100.00
4415;BME280;2220;42.670;23.398;2024-01-07T01:16:28;89513.50;;;5.75;100.00
4415;BME280;2220;42.670;23.398;2024-01-07T01:18:53;89459.00;;;5.84;100.00
4415;BME280;2220;42.670;23.398;2024-01-07T01:21:19;89406.78;;;5.94;100.00
4415;BME280;2220;42.670;23.398;2024-01-07T01:23:46;89346.00;;;6.07;100.00
4415;BME280;2220;42.670;23.398;2024-01-07T01:26:12;89267.16;;;6.21;100.00
4415;BME280;2220;42.670;23.398;2024-01-07T01:28:37;89228.13;;;6.36;100.00
4415;BME280;2220;42.670;23.398;2024-01-07T01:31:03;89157.28;;;6.44;100.00
4415;BME280;2220;42.670;23.398;2024-01-07T01:33:28;89114.84;;;6.56;100.00
4415;BME280;2220;42.670;23.398;2024-01-07T01:35:54;89066.50;;;6.64;100.00
4415;BME280;2220;42.670;23.398;2024-01-07T01:38:19;89036.59;;;6.70;100.00
4415;BME280;2220;42.670;23.398;2024-01-07T01:40:54;88983.03;;;6.81;100.00
4415;BME280;2220;42.670;23.398;2024-01-07T01:43:29;88947.94;;;6.87;100.00
4415;BME280;2220;42.670;23.398;2024-01-07T01:45:55;88905.44;;;6.95;100.00
4415;BME280;2220;42.670;23.398;2024-01-07T01:48:22;88881.78;;;6.97;100.00
4415;BME280;2220;42.670;23.398;2024-01-07T01:50:48;88866.63;;;7.06;100.00
4415;BME280;2220;42.670;23.398;2024-01-07T01:53:15;88858.13;;;7.06;100.00
4415;BME280;2220;42.670;23.398;2024-01-07T01:55:42;88859.94;;;7.16;100.00
4415;BME280;2220;42.670;23.398;2024-01-07T01:58:09;88854.75;;;7.19;100.00
4415;BME280;2220;42.670;23.398;2024-01-07T02:00:35;88853.25;;;7.25;100.00
4415;BME280;2220;42.670;23.398;2024-01-07T02:03:00;88853.25;;;7.25;100.00
4415;BME280;2220;42.670;23.398;2024-01-07T02:05:26;88841.75;;;7.34;100.00
4415;BME280;2220;42.670;23.398;2024-01-07T02:07:53;88818.75;;;7.43;100.00
4415;BME280;2220;42.670;23.398;2024-01-07T02:10:20;88821.34;;;7.46;100.00
4415;BME280;2220;42.670;23.398;2024-01-07T02:12:45;88830.19;;;7.45;100.00
4415;BME280;2220;42.670;23.398;2024-01-07T02:15:11;88845.38;;;7.43;100.00
4415;BME280;2220;42.670;23.398;2024-01-07T02:17:36;88919.03;;;7.14;100.00
4415;BME280;2220;42.670;23.398;2024-01-07T02:20:02;88997.81;;;6.98;100.00
4415;BME280;2220;42.670;23.398;2024-01-07T02:22:27;88959.72;;;7.10;100.00
4415;BME280;2220;42.670;23.398;2024-01-07T02:24:52;88892.81;;;7.15;100.00
4415;BME280;2220;42.670;23.398;2024-01-07T02:27:18;88821.47;;;7.25;100.00
4415;BME280;2220;42.670;23.398;2024-01-07T02:29:43;88746.78;;;7.31;100.00
4415;BME280;2220;42.670;23.398;2024-01-07T02:32:09;88699.06;;;7.35;100.00
4415;BME280;2220;42.670;23.398;2024-01-07T02:34:34;88668.00;;;7.35;100.00
4415;BME280;2220;42.670;23.398;2024-01-07T02:36:59;88640.69;;;7.34;100.00
4415;BME280;2220;42.670;23.398;2024-01-07T02:39:25;88641.06;;;7.29;100.00
4415;BME280;2220;42.670;23.398;2024-01-07T02:41:50;88582.16;;;7.47;100.00
4415;BME280;2220;42.670;23.398;2024-01-07T02:44:16;88570.38;;;7.43;100.00
4415;BME280;2220;42.670;23.398;2024-01-07T02:46:41;88553.56;;;7.58;100.00
4415;BME280;2220;42.670;23.398;2024-01-07T02:49:07;88538.69;;;7.66;100.00
4415;BME280;2220;42.670;23.398;2024-01-07T02:51:32;88536.06;;;7.69;100.00
4415;BME280;2220;42.670;23.398;2024-01-07T02:53:57;88533.53;;;7.66;100.00
4415;BME280;2220;42.670;23.398;2024-01-07T02:56:23;88498.53;;;7.84;100.00
4415;BME280;2220;42.670;23.398;2024-01-07T02:58:48;88464.28;;;8.00;100.00
4415;BME280;2220;42.670;23.398;2024-01-07T03:01:14;88439.00;;;8.11;100.00
4415;BME280;2220;42.670;23.398;2024-01-07T03:03:39;88465.03;;;8.01;100.00
4415;BME280;2220;42.670;23.398;2024-01-07T03:06:04;88502.94;;;7.88;100.00
4415;BME280;2220;42.670;23.398;2024-01-07T03:08:30;88511.69;;;7.97;100.00
4415;BME280;2220;42.670;23.398;2024-01-07T03:10:55;88500.16;;;8.02;100.00
4415;BME280;2220;42.670;23.398;2024-01-07T03:13:21;88525.31;;;8.01;100.00
4415;BME280;2220;42.670;23.398;2024-01-07T03:15:46;88532.25;;;8.08;100.00
4415;BME280;2220;42.670;23.398;2024-01-07T03:18:12;88515.47;;;8.20;100.00
4415;BME280;2220;42.670;23.398;2024-01-07T03:20:37;88514.97;;;8.28;100.00
4415;BME280;2220;42.670;23.398;2024-01-07T03:23:02;88525.63;;;8.34;100.00
4415;BME280;2220;42.670;23.398;2024-01-07T03:25:28;88592.78;;;8.21;100.00
4415;BME280;2220;42.670;23.398;2024-01-07T03:27:53;88661.09;;;8.04;100.00
4415;BME280;2220;42.670;23.398;2024-01-07T03:30:19;88754.22;;;7.70;100.00
4415;BME280;2220;42.670;23.398;2024-01-07T03:32:44;88809.00;;;7.65;100.00
4415;BME280;2220;42.670;23.398;2024-01-07T03:35:09;88842.28;;;7.66;100.00
4415;BME280;2220;42.670;23.398;2024-01-07T03:37:35;88834.09;;;7.75;100.00
4415;BME280;2220;42.670;23.398;2024-01-07T03:40:01;88794.06;;;7.87;100.00
4415;BME280;2220;42.670;23.398;2024-01-07T03:42:27;88765.53;;;7.90;100.00
4415;BME280;2220;42.670;23.398;2024-01-07T03:44:52;88737.78;;;7.94;100.00
4415;BME280;2220;42.670;23.398;2024-01-07T03:47:17;88710.72;;;7.99;100.00
4415;BME280;2220;42.670;23.398;2024-01-07T03:49:43;88795.78;;;7.52;100.00
4415;BME280;2220;42.670;23.398;2024-01-07T03:52:08;88849.44;;;7.44;100.00
4415;BME280;2220;42.670;23.398;2024-01-07T03:54:34;88838.41;;;7.29;100.00
4415;BME280;2220;42.670;23.398;2024-01-07T03:57:00;88825.91;;;7.21;100.00
4415;BME280;2220;42.670;23.398;2024-01-07T03:59:25;88797.13;;;7.12;100.00
4415;BME280;2220;42.670;23.398;2024-01-07T04:01:56;88754.75;;;6.98;100.00
4415;BME280;2220;42.670;23.398;2024-01-07T04:04:22;88759.28;;;6.73;100.00
4415;BME280;2220;42.670;23.398;2024-01-07T04:06:47;88723.81;;;6.73;100.00
4415;BME280;2220;42.670;23.398;2024-01-07T04:09:12;88663.66;;;6.73;100.00
4415;BME280;2220;42.670;23.398;2024-01-07T04:11:41;88627.13;;;6.71;100.00
4415;BME280;2220;42.670;23.398;2024-01-07T04:14:08;88574.31;;;6.72;100.00
4415;BME280;2220;42.670;23.398;2024-01-07T04:16:33;88536.66;;;6.71;100.00
4415;BME280;2220;42.670;23.398;2024-01-07T04:18:59;88489.75;;;6.72;100.00
4415;BME280;2220;42.670;23.398;2024-01-07T04:21:24;88451.03;;;6.69;100.00
4415;BME280;2220;42.670;23.398;2024-01-07T04:23:50;88421.50;;;6.70;100.00
4415;BME280;2220;42.670;23.398;2024-01-07T04:26:15;88405.28;;;6.66;100.00
4415;BME280;2220;42.670;23.398;2024-01-07T04:28:41;88393.94;;;6.56;100.00
4415;BME280;2220;42.670;23.398;2024-01-07T04:31:07;88381.00;;;6.60;100.00
4415;BME280;2220;42.670;23.398;2024-01-07T04:33:33;88294.03;;;6.77;100.00
4415;BME280;2220;42.670;23.398;2024-01-07T04:35:58;88259.66;;;6.80;100.00
4415;BME280;2220;42.670;23.398;2024-01-07T04:38:24;88261.44;;;6.86;100.00
4415;BME280;2220;42.670;23.398;2024-01-07T04:40:50;88278.44;;;6.84;100.00
4415;BME280;2220;42.670;23.398;2024-01-07T04:43:17;88274.84;;;6.78;100.00
4415;BME280;2220;42.670;23.398;2024-01-07T04:45:43;88270.56;;;6.64;100.00
4415;BME280;2220;42.670;23.398;2024-01-07T04:48:08;88252.28;;;6.51;100.00
4415;BME280;2220;42.670;23.398;2024-01-07T04:50:33;88260.84;;;6.41;100.00
4415;BME280;2220;42.670;23.398;2024-01-07T04:52:59;88312.38;;;6.17;100.00
4415;BME280;2220;42.670;23.398;2024-01-07T04:55:24;88368.38;;;5.79;100.00
4415;BME280;2220;42.670;23.398;2024-01-07T04:57:50;88444.06;;;5.58;100.00
4415;BME280;2220;42.670;23.398;2024-01-07T05:00:16;88514.91;;;5.47;100.00
4415;BME280;2220;42.670;23.398;2024-01-07T05:02:41;88623.59;;;5.42;100.00
4415;BME280;2220;42.670;23.398;2024-01-07T05:05:09;88695.09;;;5.30;100.00
4415;BME280;2220;42.670;23.398;2024-01-07T05:07:35;88769.50;;;5.36;100.00
4415;BME280;2220;42.670;23.398;2024-01-07T05:10:00;88808.19;;;5.43;100.00
4415;BME280;2220;42.670;23.398;2024-01-07T05:12:26;89025.97;;;5.42;100.00
4415;BME280;2220;42.670;23.398;2024-01-07T05:14:52;89089.38;;;5.46;100.00
4415;BME280;2220;42.670;23.398;2024-01-07T05:17:17;89158.34;;;5.56;100.00
4415;BME280;2220;42.670;23.398;2024-01-07T05:19:43;89238.28;;;5.53;100.00
4415;BME280;2220;42.670;23.398;2024-01-07T05:22:11;89325.19;;;5.42;100.00
4415;BME280;2220;42.670;23.398;2024-01-07T05:24:37;89421.88;;;5.55;100.00
4415;BME280;2220;42.670;23.398;2024-01-07T05:27:06;89534.25;;;5.52;100.00
4415;BME280;2220;42.670;23.398;2024-01-07T05:29:32;89685.50;;;5.60;100.00
4415;BME280;2220;42.670;23.398;2024-01-07T05:32:00;89844.88;;;5.67;100.00
4415;BME280;2220;42.670;23.398;2024-01-07T05:34:27;89997.50;;;5.66;100.00
4415;BME280;2220;42.670;23.398;2024-01-07T05:36:53;90131.66;;;5.81;100.00
4415;BME280;2220;42.670;23.398;2024-01-07T05:39:18;90360.88;;;5.88;100.00
4415;BME280;2220;42.670;23.398;2024-01-07T05:41:44;90453.72;;;5.97;100.00
4415;BME280;2220;42.670;23.398;2024-01-07T05:44:09;90564.44;;;5.98;100.00
4415;BME280;2220;42.670;23.398;2024-01-07T05:46:38;90669.56;;;6.10;100.00
4415;BME280;2220;42.670;23.398;2024-01-07T05:49:05;90953.63;;;6.19;100.00
4415;BME280;2220;42.670;23.398;2024-01-07T05:54:16;91178.22;;;6.24;100.00
4415;BME280;2220;42.670;23.398;2024-01-07T05:56:41;91239.13;;;6.33;100.00
4415;BME280;2220;42.670;23.398;2024-01-07T05:59:07;91292.97;;;6.31;100.00
4415;BME280;2220;42.670;23.398;2024-01-07T06:01:33;91336.72;;;6.36;100.00
4415;BME280;2220;42.670;23.398;2024-01-07T06:03:59;91385.66;;;6.41;100.00
4415;BME280;2220;42.670;23.398;2024-01-07T06:06:24;91422.00;;;6.45;100.00
4415;BME280;2220;42.670;23.398;2024-01-07T06:08:49;91453.16;;;6.49;100.00
4415;BME280;2220;42.670;23.398;2024-01-07T06:11:15;91474.75;;;6.53;100.00
4415;BME280;2220;42.670;23.398;2024-01-07T06:13:45;91492.38;;;6.59;100.00
4415;BME280;2220;42.670;23.398;2024-01-07T06:16:10;91512.31;;;6.41;100.00
4415;BME280;2220;42.670;23.398;2024-01-07T06:18:36;91583.34;;;6.35;100.00
4415;BME280;2220;42.670;23.398;2024-01-07T06:21:01;91596.09;;;6.40;100.00
4415;BME280;2220;42.670;23.398;2024-01-07T06:23:32;91615.72;;;6.41;100.00
4415;BME280;2220;42.670;23.398;2024-01-07T06:25:58;91632.00;;;6.51;100.00
4415;BME280;2220;42.670;23.398;2024-01-07T06:28:23;91656.94;;;6.47;100.00
4415;BME280;2220;42.670;23.398;2024-01-07T06:30:49;91662.28;;;6.50;100.00
4415;BME280;2220;42.670;23.398;2024-01-07T06:33:14;91673.97;;;6.65;100.00
4415;BME280;2220;42.670;23.398;2024-01-07T06:35:40;91687.06;;;6.68;100.00
4415;BME280;2220;42.670;23.398;2024-01-07T06:38:06;91708.34;;;6.65;100.00
4415;BME280;2220;42.670;23.398;2024-01-07T06:40:31;91721.88;;;6.54;100.00
4415;BME280;2220;42.670;23.398;2024-01-07T06:42:57;91755.19;;;6.64;100.00
4415;BME280;2220;42.670;23.398;2024-01-07T06:45:23;91769.50;;;6.61;100.00
4415;BME280;2220;42.670;23.398;2024-01-07T06:47:48;91790.34;;;6.73;100.00
4415;BME280;2220;42.670;23.398;2024-01-07T06:50:20;91806.50;;;6.79;100.00
4415;BME280;2220;42.670;23.398;2024-01-07T06:52:46;91824.47;;;6.84;100.00
4415;BME280;2220;42.670;23.398;2024-01-07T06:55:11;91835.88;;;6.83;100.00
4415;BME280;2220;42.670;23.398;2024-01-07T06:57:36;91846.22;;;6.83;100.00
4415;BME280;2220;42.670;23.398;2024-01-07T07:00:06;91851.41;;;6.92;100.00
4415;BME280;2220;42.670;23.398;2024-01-07T07:02:31;91871.06;;;7.01;100.00
4415;BME280;2220;42.670;23.398;2024-01-07T07:04:57;91881.72;;;7.09;100.00
4415;BME280;2220;42.670;23.398;2024-01-07T07:07:22;91881.28;;;7.24;100.00
4415;BME280;2220;42.670;23.398;2024-01-07T07:09:47;91883.25;;;7.36;100.00
4415;BME280;2220;42.670;23.398;2024-01-07T07:12:17;91877.31;;;7.44;100.00
4415;BME280;2220;42.670;23.398;2024-01-07T07:14:43;91884.03;;;7.36;100.00
4415;BME280;2220;42.670;23.398;2024-01-07T07:17:08;91881.28;;;7.33;100.00
4415;BME280;2220;42.670;23.398;2024-01-07T07:19:34;91885.84;;;7.44;100.00
4415;BME280;2220;42.670;23.398;2024-01-07T07:21:59;91885.56;;;7.54;100.00
4415;BME280;2220;42.670;23.398;2024-01-07T07:24:24;91878.38;;;7.60;100.00
4415;BME280;2220;42.670;23.398;2024-01-07T07:26:50;91871.84;;;7.63;100.00
4415;BME280;2220;42.670;23.398;2024-01-07T07:29:15;91878.06;;;7.62;100.00
4415;BME280;2220;42.670;23.398;2024-01-07T07:31:41;91888.44;;;7.53;100.00
4415;BME280;2220;42.670;23.398;2024-01-07T07:34:08;91905.34;;;7.33;100.00
4415;BME280;2220;42.670;23.398;2024-01-07T07:36:34;91925.75;;;7.35;100.00
4415;BME280;2220;42.670;23.398;2024-01-07T07:38:59;91942.50;;;7.37;100.00
4415;BME280;2220;42.670;23.398;2024-01-07T07:41:28;91950.31;;;7.54;100.00
4415;BME280;2220;42.670;23.398;2024-01-07T07:43:54;91952.44;;;7.44;100.00
4415;BME280;2220;42.670;23.398;2024-01-07T07:46:19;91972.13;;;7.62;100.00
4415;BME280;2220;42.670;23.398;2024-01-07T07:48:45;91972.56;;;7.55;100.00
4415;BME280;2220;42.670;23.398;2024-01-07T07:51:10;91988.56;;;8.27;100.00
4415;BME280;2220;42.670;23.398;2024-01-07T07:53:38;91975.00;;;8.04;100.00
4415;BME280;2220;42.670;23.398;2024-01-07T07:56:05;91970.28;;;7.89;100.00
4415;BME280;2220;42.670;23.398;2024-01-07T07:58:31;91965.84;;;7.98;100.00
4415;BME280;2220;42.670;23.398;2024-01-07T08:00:56;91959.91;;;7.97;100.00
4415;BME280;2220;42.670;23.398;2024-01-07T08:03:21;91958.72;;;7.95;100.00
4415;BME280;2220;42.670;23.398;2024-01-07T08:05:47;91953.97;;;7.88;100.00
4415;BME280;2220;42.670;23.398;2024-01-07T08:08:12;91946.03;;;7.84;100.00
4415;BME280;2220;42.670;23.398;2024-01-07T08:10:38;91958.41;;;7.79;100.00
4415;BME280;2220;42.670;23.398;2024-01-07T08:13:03;91952.47;;;7.87;100.00
4415;BME280;2220;42.670;23.398;2024-01-07T08:15:29;91951.38;;;7.79;100.00
4415;BME280;2220;42.670;23.398;2024-01-07T08:17:54;91954.13;;;7.66;100.00
4415;BME280;2220;42.670;23.398;2024-01-07T08:20:20;91966.63;;;7.64;100.00
4415;BME280;2220;42.670;23.398;2024-01-07T08:22:45;91980.34;;;7.73;100.00
4415;BME280;2220;42.670;23.398;2024-01-07T08:25:10;91992.22;;;7.74;100.00
4415;BME280;2220;42.670;23.398;2024-01-07T08:27:36;91984.44;;;7.65;100.00
4415;BME280;2220;42.670;23.398;2024-01-07T08:30:03;91987.94;;;7.69;100.00
4415;BME280;2220;42.670;23.398;2024-01-07T08:32:28;91980.47;;;7.68;100.00
4415;BME280;2220;42.670;23.398;2024-01-07T08:34:54;92003.78;;;7.68;100.00
4415;BME280;2220;42.670;23.398;2024-01-07T08:37:19;92021.34;;;7.62;100.00
4415;BME280;2220;42.670;23.398;2024-01-07T08:39:44;92047.84;;;7.76;100.00
4415;BME280;2220;42.670;23.398;2024-01-07T08:42:10;92204.16;;;7.94;100.00
4415;BME280;2220;42.670;23.398;2024-01-07T08:44:35;92209.34;;;7.94;100.00
4415;BME280;2220;42.670;23.398;2024-01-07T08:47:01;92200.75;;;7.85;100.00
4415;BME280;2220;42.670;23.398;2024-01-07T08:49:28;92227.50;;;8.03;100.00
4415;BME280;2220;42.670;23.398;2024-01-07T08:51:53;92231.47;;;8.09;100.00
4415;BME280;2220;42.670;23.398;2024-01-07T08:54:21;92235.63;;;8.58;100.00
4415;BME280;2220;42.670;23.398;2024-01-07T08:56:46;92234.56;;;8.77;100.00
4415;BME280;2220;42.670;23.398;2024-01-07T08:59:12;92245.09;;;8.80;100.00
4415;BME280;2220;42.670;23.398;2024-01-07T09:01:37;92246.00;;;9.10;100.00
4415;BME280;2220;42.670;23.398;2024-01-07T09:04:02;92237.91;;;9.03;100.00
4415;BME280;2220;42.670;23.398;2024-01-07T09:06:28;92227.41;;;8.91;100.00
4415;BME280;2220;42.670;23.398;2024-01-07T09:08:53;92222.66;;;8.76;100.00
4415;BME280;2220;42.670;23.398;2024-01-07T09:11:19;92235.94;;;8.83;100.00
4415;BME280;2220;42.670;23.398;2024-01-07T09:13:45;92246.91;;;8.97;100.00
4415;BME280;2220;42.670;23.398;2024-01-07T09:16:13;92257.16;;;8.93;100.00
4415;BME280;2220;42.670;23.398;2024-01-07T09:18:39;92266.94;;;8.96;100.00
4415;BME280;2220;42.670;23.398;2024-01-07T09:21:04;92266.63;;;9.24;100.00
4415;BME280;2220;42.670;23.398;2024-01-07T09:23:31;92260.19;;;9.30;100.00
4415;BME280;2220;42.670;23.398;2024-01-07T09:25:59;92236.81;;;9.30;100.00
4415;BME280;2220;42.670;23.398;2024-01-07T09:28:24;92204.44;;;9.28;100.00
4415;BME280;2220;42.670;23.398;2024-01-07T09:30:50;92176.03;;;9.31;100.00
4415;BME280;2220;42.670;23.398;2024-01-07T09:33:15;92172.16;;;9.55;100.00
4415;BME280;2220;42.670;23.398;2024-01-07T09:35:41;92124.88;;;9.91;100.00
4415;BME280;2220;42.670;23.398;2024-01-07T09:38:07;92058.97;;;9.95;100.00
4415;BME280;2220;42.670;23.398;2024-01-07T09:40:32;91986.53;;;10.06;100.00
4415;BME280;2220;42.670;23.398;2024-01-07T09:42:57;91880.31;;;9.96;100.00
4415;BME280;2220;42.670;23.398;2024-01-07T09:45:24;91772.06;;;9.79;100.00
4415;BME280;2220;42.670;23.398;2024-01-07T09:47:50;91702.31;;;9.81;100.00
4415;BME280;2220;42.670;23.398;2024-01-07T09:50:16;91631.91;;;9.86;100.00
4415;BME280;2220;42.670;23.398;2024-01-07T09:52:43;91554.75;;;10.15;100.00
4415;BME280;2220;42.670;23.398;2024-01-07T09:55:33;91441.31;;;10.38;100.00
4415;BME280;2220;42.670;23.398;2024-01-07T09:57:58;91320.38;;;10.48;100.00
4415;BME280;2220;42.670;23.398;2024-01-07T10:00:26;91166.38;;;10.42;100.00
4415;BME280;2220;42.670;23.398;2024-01-07T10:02:53;91023.94;;;10.55;100.00
4415;BME280;2220;42.670;23.398;2024-01-07T10:05:18;90881.34;;;10.64;100.00
4415;BME280;2220;42.670;23.398;2024-01-07T10:07:44;90722.41;;;10.76;100.00
4415;BME280;2220;42.670;23.398;2024-01-07T10:10:16;90526.63;;;10.53;100.00
4415;BME280;2220;42.670;23.398;2024-01-07T10:12:44;90346.69;;;10.44;100.00
4415;BME280;2220;42.670;23.398;2024-01-07T10:15:10;90183.22;;;10.49;100.00
4415;BME280;2220;42.670;23.398;2024-01-07T10:17:35;90025.28;;;10.35;100.00
4415;BME280;2220;42.670;23.398;2024-01-07T10:20:01;89885.56;;;10.25;100.00
4415;BME280;2220;42.670;23.398;2024-01-07T10:22:27;89751.13;;;10.12;100.00
4415;BME280;2220;42.670;23.398;2024-01-07T10:24:52;89634.91;;;10.12;100.00
4415;BME280;2220;42.670;23.398;2024-01-07T10:27:17;89550.22;;;10.15;100.00
4415;BME280;2220;42.670;23.398;2024-01-07T10:29:43;89448.19;;;10.03;100.00
4415;BME280;2220;42.670;23.398;2024-01-07T10:32:09;89348.75;;;9.96;100.00
4415;BME280;2220;42.670;23.398;2024-01-07T10:34:35;89248.16;;;9.93;100.00
4415;BME280;2220;42.670;23.398;2024-01-07T10:37:02;89177.63;;;9.94;100.00
4415;BME280;2220;42.670;23.398;2024-01-07T10:39:29;89137.44;;;10.02;100.00
4415;BME280;2220;42.670;23.398;2024-01-07T10:41:56;89109.91;;;10.12;100.00
4415;BME280;2220;42.670;23.398;2024-01-07T10:44:32;89012.94;;;10.15;100.00
4415;BME280;2220;42.670;23.398;2024-01-07T10:46:58;88873.34;;;10.16;100.00
4415;BME280;2220;42.670;23.398;2024-01-07T10:49:26;88735.56;;;10.19;100.00
4415;BME280;2220;42.670;23.398;2024-01-07T10:52:06;88575.31;;;10.13;100.00
4415;BME280;2220;42.670;23.398;2024-01-07T10:54:34;88437.06;;;10.18;100.00
4415;BME280;2220;42.670;23.398;2024-01-07T10:57:07;88315.78;;;10.15;100.00
4415;BME280;2220;42.670;23.398;2024-01-07T10:59:36;88179.59;;;10.28;100.00
4415;BME280;2220;42.670;23.398;2024-01-07T11:02:02;88046.94;;;10.45;100.00
4415;BME280;2220;42.670;23.398;2024-01-07T11:07:26;87763.78;;;10.72;100.00
4415;BME280;2220;42.670;23.398;2024-01-07T11:10:08;87603.13;;;10.67;100.00
4415;BME280;2220;42.670;23.398;2024-01-07T11:12:35;87467.63;;;10.74;100.00
4415;BME280;2220;42.670;23.398;2024-01-07T11:15:02;87352.19;;;10.99;100.00
4415;BME280;2220;42.670;23.398;2024-01-07T11:20:06;87264.19;;;10.88;100.00
4415;BME280;2220;42.670;23.398;2024-01-07T11:22:31;87200.50;;;10.75;100.00
4415;BME280;2220;42.670;23.398;2024-01-07T11:24:59;87129.03;;;10.70;100.00
4415;BME280;2220;42.670;23.398;2024-01-07T11:27:29;87080.22;;;10.65;100.00
4415;BME280;2220;42.670;23.398;2024-01-07T11:29:58;86999.03;;;10.70;100.00
4415;BME280;2220;42.670;23.398;2024-01-07T11:32:29;86919.16;;;10.71;100.00
4415;BME280;2220;42.670;23.398;2024-01-07T11:34:54;86875.28;;;10.49;100.00
4415;BME280;2220;42.670;23.398;2024-01-07T11:37:22;86790.44;;;10.60;100.00
4415;BME280;2220;42.670;23.398;2024-01-07T11:39:50;86777.78;;;10.53;100.00
4415;BME280;2220;42.670;23.398;2024-01-07T11:42:16;86707.06;;;10.64;100.00
4415;BME280;2220;42.670;23.398;2024-01-07T11:44:48;86625.81;;;10.84;100.00
4415;BME280;2220;42.670;23.398;2024-01-07T11:47:17;86543.69;;;10.98;100.00
4415;BME280;2220;42.670;23.398;2024-01-07T11:49:44;86506.56;;;10.97;100.00
4415;BME280;2220;42.670;23.398;2024-01-07T11:52:09;86567.75;;;10.92;100.00
4415;BME280;2220;42.670;23.398;2024-01-07T11:54:40;86516.31;;;11.02;100.00
4415;BME280;2220;42.670;23.398;2024-01-07T11:57:06;86470.53;;;11.10;100.00
4415;BME280;2220;42.670;23.398;2024-01-07T11:59:33;86445.69;;;11.09;100.00
4415;BME280;2220;42.670;23.398;2024-01-07T12:02:03;86469.56;;;11.08;100.00
4415;BME280;2220;42.670;23.398;2024-01-07T12:04:34;86508.00;;;10.98;100.00
4415;BME280;2220;42.670;23.398;2024-01-07T12:07:01;86515.94;;;10.89;100.00
4415;BME280;2220;42.670;23.398;2024-01-07T12:09:27;86560.41;;;10.91;100.00
4415;BME280;2220;42.670;23.398;2024-01-07T12:11:53;86642.81;;;11.00;100.00
4415;BME280;2220;42.670;23.398;2024-01-07T12:14:19;86739.81;;;11.06;100.00
4415;BME280;2220;42.670;23.398;2024-01-07T12:16:45;86904.25;;;11.10;100.00
4415;BME280;2220;42.670;23.398;2024-01-07T12:19:12;87162.25;;;11.08;100.00
4415;BME280;2220;42.670;23.398;2024-01-07T12:21:37;87464.16;;;11.05;100.00
4415;BME280;2220;42.670;23.398;2024-01-07T12:24:04;87820.91;;;11.07;100.00
4415;BME280;2220;42.670;23.398;2024-01-07T12:26:30;88223.09;;;11.08;100.00
4415;BME280;2220;42.670;23.398;2024-01-07T12:28:58;88524.06;;;10.98;100.00
4415;BME280;2220;42.670;23.398;2024-01-07T12:31:31;88671.06;;;10.90;100.00
4415;BME280;2220;42.670;23.398;2024-01-07T12:33:57;88788.56;;;10.88;100.00
4415;BME280;2220;42.670;23.398;2024-01-07T12:36:23;88925.84;;;10.81;100.00
4415;BME280;2220;42.670;23.398;2024-01-07T12:38:49;89114.25;;;10.83;100.00
4415;BME280;2220;42.670;23.398;2024-01-07T12:41:17;89333.16;;;10.85;100.00
4415;BME280;2220;42.670;23.398;2024-01-07T12:43:42;89524.63;;;10.83;100.00
4415;BME280;2220;42.670;23.398;2024-01-07T12:46:08;89639.06;;;10.90;100.00
4415;BME280;2220;42.670;23.398;2024-01-07T12:48:33;89671.78;;;10.87;100.00
4415;BME280;2220;42.670;23.398;2024-01-07T12:51:00;89611.53;;;10.92;100.00
4415;BME280;2220;42.670;23.398;2024-01-07T12:53:25;89612.28;;;10.89;100.00
4415;BME280;2220;42.670;23.398;2024-01-07T12:55:51;89598.16;;;10.90;100.00
4415;BME280;2220;42.670;23.398;2024-01-07T12:58:17;89651.22;;;11.11;100.00
4415;BME280;2220;42.670;23.398;2024-01-07T13:00:43;89779.09;;;11.24;100.00
4415;BME280;2220;42.670;23.398;2024-01-07T13:03:09;89857.16;;;11.41;100.00
4415;BME280;2220;42.670;23.398;2024-01-07T13:05:39;89861.94;;;11.57;100.00
4415;BME280;2220;42.670;23.398;2024-01-07T13:08:07;90039.06;;;11.68;100.00
4415;BME280;2220;42.670;23.398;2024-01-07T13:10:32;90007.41;;;11.69;100.00